createdAt,value
2022-11-08T00:00:01.440Z,74.04
2022-11-08T00:02:28.541Z,73.99
2022-11-08T00:04:55.197Z,74.06
2022-11-08T00:07:40.781Z,74.28
2022-11-08T00:10:26.700Z,74.08
2022-11-08T00:13:11.922Z,74.29
2022-11-08T00:15:39.046Z,74.23
2022-11-08T00:18:07.224Z,74.24
2022-11-08T00:20:34.669Z,74.35
2022-11-08T00:23:01.541Z,74.26
2022-11-08T00:25:28.163Z,74.23
2022-11-08T00:27:55.204Z,74.54
2022-11-08T00:30:22.020Z,74.55
2022-11-08T00:32:48.783Z,74.42
2022-11-08T00:35:15.540Z,74.66
2022-11-08T00:37:42.201Z,74.72
2022-11-08T00:40:09.349Z,74.91
2022-11-08T00:42:35.969Z,75.00
2022-11-08T00:45:02.875Z,75.05
2022-11-08T00:47:29.476Z,75.00
2022-11-08T00:49:56.130Z,74.94
2022-11-08T00:52:22.978Z,74.95
2022-11-08T00:54:49.549Z,75.18
2022-11-08T00:57:16.237Z,75.13
2022-11-08T00:59:43.074Z,75.22
2022-11-08T01:02:09.669Z,75.13
2022-11-08T01:04:36.327Z,75.21
2022-11-08T01:07:03.380Z,75.22
2022-11-08T01:09:30.009Z,75.21
2022-11-08T01:11:56.997Z,75.20
2022-11-08T01:14:23.902Z,74.99
2022-11-08T01:16:50.531Z,75.18
2022-11-08T01:19:17.347Z,75.08
2022-11-08T01:21:43.982Z,75.10
2022-11-08T01:24:10.555Z,75.15
2022-11-08T01:26:37.714Z,75.11
2022-11-08T01:29:04.384Z,74.91
2022-11-08T01:31:32.587Z,75.19
2022-11-08T01:34:00.299Z,75.30
2022-11-08T01:36:28.463Z,75.22
2022-11-08T01:38:56.778Z,75.19
2022-11-08T01:41:25.900Z,75.08
2022-11-08T01:43:54.897Z,75.21
2022-11-08T01:46:42.660Z,75.01
2022-11-08T01:49:37.523Z,75.26
2022-11-08T01:52:22.959Z,74.96
2022-11-08T01:55:02.996Z,74.89
2022-11-08T01:57:52.597Z,74.99
2022-11-08T02:00:20.039Z,74.71
2022-11-08T02:02:56.870Z,75.07
2022-11-08T02:05:26.972Z,75.12
2022-11-08T02:07:56.488Z,75.16
2022-11-08T02:10:27.465Z,75.34
2022-11-08T02:12:55.339Z,75.33
2022-11-08T02:15:24.984Z,75.38
2022-11-08T02:17:52.737Z,75.16
2022-11-08T02:20:19.591Z,75.41
2022-11-08T02:22:56.593Z,75.57
2022-11-08T02:25:23.626Z,75.36
2022-11-08T02:27:50.245Z,75.44
2022-11-08T02:30:17.006Z,75.41
2022-11-08T02:32:43.647Z,75.37
2022-11-08T02:35:18.173Z,75.46
2022-11-08T02:37:45.796Z,75.42
2022-11-08T02:40:12.583Z,75.22
2022-11-08T02:42:39.562Z,75.46
2022-11-08T02:45:07.944Z,75.43
2022-11-08T02:47:34.690Z,75.37
2022-11-08T02:50:01.345Z,75.23
2022-11-08T02:52:28.207Z,75.36
2022-11-08T02:54:54.789Z,75.25
2022-11-08T02:57:21.537Z,75.45
2022-11-08T02:59:49.349Z,75.31
2022-11-08T03:02:16.068Z,75.37
2022-11-08T03:04:42.891Z,75.28
2022-11-08T03:07:09.740Z,75.30
2022-11-08T03:09:36.385Z,75.35
2022-11-08T03:12:03.248Z,75.53
2022-11-08T03:14:29.934Z,75.65
2022-11-08T03:16:56.573Z,75.64
2022-11-08T03:19:23.158Z,75.50
2022-11-08T03:21:49.863Z,75.45
2022-11-08T03:24:16.539Z,75.42
2022-11-08T03:26:43.454Z,75.51
2022-11-08T03:29:10.145Z,75.29
2022-11-08T03:31:36.708Z,75.41
2022-11-08T03:34:03.270Z,75.49
2022-11-08T03:36:30.406Z,75.33
2022-11-08T03:38:57.013Z,75.37
2022-11-08T03:41:23.709Z,75.34
2022-11-08T03:43:50.396Z,75.17
2022-11-08T03:46:17.046Z,75.37
2022-11-08T03:48:43.717Z,75.29
2022-11-08T03:51:10.663Z,75.15
2022-11-08T03:53:37.256Z,75.27
2022-11-08T03:56:04.001Z,75.39
2022-11-08T03:58:31.048Z,75.37
2022-11-08T04:00:58.300Z,75.35
2022-11-08T04:03:25.280Z,75.40
2022-11-08T04:05:52.053Z,75.38
2022-11-08T04:08:18.958Z,75.64
2022-11-08T04:10:45.780Z,75.22
2022-11-08T04:13:31.148Z,75.28
2022-11-08T04:15:58.162Z,75.36
2022-11-08T04:18:43.683Z,75.56
2022-11-08T04:21:21.970Z,75.47
2022-11-08T04:23:50.851Z,75.56
2022-11-08T04:26:18.427Z,75.50
2022-11-08T04:28:45.521Z,75.50
2022-11-08T04:31:15.654Z,75.51
2022-11-08T04:33:42.504Z,75.57
2022-11-08T04:36:14.802Z,75.42
2022-11-08T04:38:41.774Z,75.56
2022-11-08T04:41:12.027Z,75.64
2022-11-08T04:43:39.012Z,75.41
2022-11-08T04:46:08.607Z,75.36
2022-11-08T04:48:35.599Z,75.36
2022-11-08T04:51:13.345Z,75.60
2022-11-08T04:53:40.920Z,75.59
2022-11-08T04:56:10.544Z,75.66
2022-11-08T04:58:39.727Z,75.79
2022-11-08T05:01:08.051Z,75.86
2022-11-08T05:03:35.406Z,76.00
2022-11-08T05:06:03.886Z,76.16
2022-11-08T05:08:30.755Z,76.22
2022-11-08T05:11:01.721Z,76.38
2022-11-08T05:13:28.838Z,76.38
2022-11-08T05:15:59.968Z,76.21
2022-11-08T05:18:26.878Z,76.30
2022-11-08T05:21:13.596Z,76.44
2022-11-08T05:23:40.400Z,76.31
2022-11-08T05:26:07.872Z,76.44
2022-11-08T05:28:35.029Z,76.43
2022-11-08T05:31:01.894Z,76.53
2022-11-08T05:33:28.507Z,76.50
2022-11-08T05:35:55.338Z,76.80
2022-11-08T05:38:22.117Z,76.52
2022-11-08T05:40:48.785Z,76.49
2022-11-08T05:43:16.013Z,76.60
2022-11-08T05:45:44.873Z,76.59
2022-11-08T05:48:11.445Z,76.67
2022-11-08T05:50:38.128Z,76.70
2022-11-08T05:53:05.006Z,76.71
2022-11-08T05:55:31.821Z,76.69
2022-11-08T05:57:58.701Z,76.72
2022-11-08T06:00:25.352Z,76.69
2022-11-08T06:02:52.041Z,76.88
2022-11-08T06:05:18.861Z,76.79
2022-11-08T06:07:45.468Z,76.96
2022-11-08T06:10:12.157Z,77.07
2022-11-08T06:12:38.871Z,77.11
2022-11-08T06:15:09.233Z,77.08
2022-11-08T06:17:36.190Z,77.32
2022-11-08T06:20:04.349Z,77.29
2022-11-08T06:22:32.661Z,77.21
2022-11-08T06:24:59.745Z,77.22
2022-11-08T06:27:26.554Z,77.15
2022-11-08T06:29:53.427Z,77.08
2022-11-08T06:32:20.295Z,77.09
2022-11-08T06:34:47.036Z,76.84
2022-11-08T06:37:14.126Z,76.93
2022-11-08T06:39:41.566Z,76.85
2022-11-08T06:42:09.076Z,76.79
2022-11-08T06:44:36.285Z,76.82
2022-11-08T06:47:02.909Z,76.75
2022-11-08T06:49:29.885Z,76.58
2022-11-08T06:51:56.649Z,76.62
2022-11-08T06:54:25.881Z,76.54
2022-11-08T06:56:56.536Z,76.62
2022-11-08T06:59:23.402Z,75.97
2022-11-08T07:01:50.155Z,76.56
2022-11-08T07:04:17.142Z,76.44
2022-11-08T07:06:43.973Z,76.22
2022-11-08T07:09:10.672Z,76.45
2022-11-08T07:11:37.486Z,76.18
2022-11-08T07:14:04.397Z,76.34
2022-11-08T07:16:30.981Z,76.25
2022-11-08T07:18:57.808Z,76.06
2022-11-08T07:21:24.437Z,76.00
2022-11-08T07:23:51.036Z,75.83
2022-11-08T07:26:18.429Z,75.84
2022-11-08T07:28:45.047Z,75.61
2022-11-08T07:31:11.664Z,75.58
2022-11-08T07:33:38.683Z,75.61
2022-11-08T07:36:05.619Z,75.41
2022-11-08T07:38:32.485Z,75.50
2022-11-08T07:41:00.892Z,75.39
2022-11-08T07:43:29.529Z,75.29
2022-11-08T07:45:58.773Z,75.18
2022-11-08T07:48:26.623Z,75.20
2022-11-08T07:50:53.419Z,74.99
2022-11-08T07:53:20.799Z,74.99
2022-11-08T07:55:48.633Z,74.78
2022-11-08T07:58:15.846Z,74.64
2022-11-08T08:00:44.483Z,74.63
2022-11-08T08:03:13.002Z,74.56
2022-11-08T08:05:45.189Z,74.26
2022-11-08T08:08:13.970Z,74.20
2022-11-08T08:10:41.238Z,74.21
2022-11-08T08:13:08.448Z,73.97
2022-11-08T08:15:35.347Z,73.98
2022-11-08T08:18:04.066Z,73.82
2022-11-08T08:20:31.427Z,73.80
2022-11-08T08:22:58.341Z,73.59
2022-11-08T08:25:25.837Z,73.72
2022-11-08T08:27:55.548Z,73.43
2022-11-08T08:30:23.504Z,73.23
2022-11-08T08:33:08.191Z,73.14
2022-11-08T08:35:38.819Z,72.77
2022-11-08T08:38:06.785Z,72.67
2022-11-08T08:40:34.713Z,72.23
2022-11-08T08:43:03.596Z,72.17
2022-11-08T08:45:31.556Z,72.38
2022-11-08T08:47:59.203Z,72.23
2022-11-08T08:50:28.455Z,72.00
2022-11-08T08:53:03.134Z,71.42
2022-11-08T08:55:29.899Z,71.51
2022-11-08T08:57:56.953Z,71.40
2022-11-08T09:03:12.164Z,71.10
2022-11-08T09:05:41.854Z,70.92
2022-11-08T09:08:08.514Z,70.72
2022-11-08T09:10:35.664Z,70.37
2022-11-08T09:13:03.766Z,70.65
2022-11-08T09:15:30.709Z,70.25
2022-11-08T09:17:57.999Z,70.25
2022-11-08T09:20:25.218Z,70.13
2022-11-08T09:22:51.803Z,70.19
2022-11-08T09:25:18.844Z,70.19
2022-11-08T09:27:46.045Z,69.50
2022-11-08T09:30:12.809Z,69.20
2022-11-08T09:32:59.688Z,69.18
2022-11-08T09:35:26.174Z,68.97
2022-11-08T09:37:54.076Z,69.16
2022-11-08T09:40:40.747Z,69.15
2022-11-08T09:43:31.324Z,69.10
2022-11-08T09:45:58.244Z,69.18
2022-11-08T09:48:43.194Z,69.22
2022-11-08T09:51:16.458Z,69.41
2022-11-08T09:53:52.324Z,69.25
2022-11-08T09:56:23.573Z,68.96
2022-11-08T09:59:02.581Z,68.62
2022-11-08T10:01:34.624Z,68.63
2022-11-08T10:04:13.668Z,68.68
2022-11-08T10:07:03.245Z,68.39
2022-11-08T10:09:35.900Z,68.44
2022-11-08T10:12:14.721Z,68.24
2022-11-08T10:15:06.158Z,68.06
2022-11-08T10:17:42.773Z,67.94
2022-11-08T10:20:09.726Z,67.53
2022-11-08T10:22:42.468Z,67.44
2022-11-08T10:25:27.112Z,67.61
2022-11-08T10:27:56.516Z,67.22
2022-11-08T10:30:27.724Z,67.06
2022-11-08T10:32:55.797Z,66.98
2022-11-08T10:35:40.928Z,66.89
2022-11-08T10:38:22.332Z,66.43
2022-11-08T10:40:55.557Z,66.34
2022-11-08T10:43:29.942Z,66.33
2022-11-08T10:45:56.953Z,66.32
2022-11-08T10:48:23.556Z,66.19
2022-11-08T10:50:51.883Z,66.69
2022-11-08T10:53:30.656Z,66.38
2022-11-08T10:56:01.332Z,66.73
2022-11-08T10:58:29.927Z,66.70
2022-11-08T11:01:15.887Z,66.79
2022-11-08T11:03:43.110Z,67.07
2022-11-08T11:06:31.211Z,67.02
2022-11-08T11:09:17.213Z,67.02
2022-11-08T11:11:45.110Z,67.05
2022-11-08T11:14:18.288Z,66.88
2022-11-08T11:17:01.495Z,67.03
2022-11-08T11:19:29.643Z,66.96
2022-11-08T11:22:08.594Z,67.13
2022-11-08T11:24:56.164Z,67.22
2022-11-08T11:27:36.814Z,66.98
2022-11-08T11:30:12.680Z,67.11
2022-11-08T11:32:40.165Z,67.12
2022-11-08T11:35:13.900Z,66.77
2022-11-08T11:37:44.809Z,66.84
2022-11-08T11:40:40.744Z,66.81
2022-11-08T11:43:16.614Z,66.87
2022-11-08T11:45:50.405Z,67.08
2022-11-08T11:48:22.544Z,67.11
2022-11-08T11:50:50.520Z,67.35
2022-11-08T11:53:25.676Z,67.27
2022-11-08T11:56:20.092Z,67.53
2022-11-08T11:59:10.263Z,67.54
2022-11-08T12:01:46.012Z,67.41
2022-11-08T12:04:55.123Z,67.74
2022-11-08T12:07:30.817Z,67.58
2022-11-08T12:10:29.526Z,67.50
2022-11-08T12:13:03.894Z,67.55
2022-11-08T12:15:49.605Z,67.71
2022-11-08T12:18:43.362Z,67.63
2022-11-08T12:21:38.516Z,67.73
2022-11-08T12:24:33.967Z,67.57
2022-11-08T12:27:06.011Z,67.34
2022-11-08T12:29:51.902Z,67.32
2022-11-08T12:32:19.010Z,67.23
2022-11-08T12:35:26.609Z,67.12
2022-11-08T12:38:21.508Z,67.18
2022-11-08T12:41:08.691Z,66.92
2022-11-08T12:43:44.871Z,66.79
2022-11-08T12:46:16.539Z,66.49
2022-11-08T12:48:50.272Z,66.23
2022-11-08T12:51:29.439Z,65.75
2022-11-08T12:54:14.872Z,65.62
2022-11-08T12:56:48.291Z,64.77
2022-11-08T12:59:23.100Z,64.91
2022-11-08T13:01:51.220Z,64.77
2022-11-08T13:04:36.995Z,64.72
2022-11-08T13:07:14.506Z,64.75
2022-11-08T13:09:58.184Z,64.79
2022-11-08T13:13:10.775Z,64.72
2022-11-08T13:16:07.354Z,64.84
2022-11-08T13:18:35.481Z,64.64
2022-11-08T13:21:28.049Z,64.83
2022-11-08T13:23:55.773Z,65.21
2022-11-08T13:26:26.543Z,65.11
2022-11-08T13:28:54.044Z,64.92
2022-11-08T13:31:23.304Z,64.81
2022-11-08T13:34:28.011Z,64.83
2022-11-08T13:37:22.819Z,64.86
2022-11-08T13:40:09.057Z,64.69
2022-11-08T13:42:35.945Z,64.52
2022-11-08T13:45:33.114Z,64.46
2022-11-08T13:48:28.672Z,64.36
2022-11-08T13:50:57.801Z,64.17
2022-11-08T13:53:42.766Z,63.94
2022-11-08T13:56:09.408Z,64.01
2022-11-08T13:58:44.969Z,64.16
2022-11-08T14:01:21.082Z,64.07
2022-11-08T14:03:47.933Z,63.92
2022-11-08T14:06:36.871Z,64.13
2022-11-08T14:09:35.907Z,64.11
2022-11-08T14:12:22.231Z,64.29
2022-11-08T14:14:55.197Z,64.31
2022-11-08T14:18:01.392Z,64.55
2022-11-08T14:20:28.590Z,64.81
2022-11-08T14:22:57.001Z,64.89
2022-11-08T14:25:23.762Z,65.04
2022-11-08T14:27:50.859Z,64.79
2022-11-08T14:30:20.607Z,64.68
2022-11-08T14:32:48.203Z,64.91
2022-11-08T14:35:25.799Z,65.03
2022-11-08T14:37:53.747Z,64.97
2022-11-08T14:40:26.823Z,65.12
2022-11-08T14:42:55.458Z,65.28
2022-11-08T14:45:26.675Z,65.19
2022-11-08T14:48:03.438Z,65.24
2022-11-08T14:50:34.939Z,65.32
2022-11-08T14:53:21.580Z,65.22
2022-11-08T14:55:53.863Z,65.20
2022-11-08T14:58:20.570Z,65.22
2022-11-08T15:00:49.565Z,65.24
2022-11-08T15:03:19.279Z,64.97
2022-11-08T15:06:14.221Z,65.11
2022-11-08T15:08:51.565Z,64.95
2022-11-08T15:11:52.724Z,65.34
2022-11-08T15:14:22.152Z,65.46
2022-11-08T15:16:52.098Z,65.63
2022-11-08T15:19:44.975Z,66.05
2022-11-08T15:22:27.232Z,66.03
2022-11-08T15:25:18.962Z,66.31
2022-11-08T15:27:56.695Z,66.57
2022-11-08T15:30:39.858Z,66.34
2022-11-08T15:33:44.954Z,66.07
2022-11-08T15:36:13.997Z,66.00
2022-11-08T15:38:42.671Z,66.53
2022-11-08T15:41:33.147Z,66.81
2022-11-08T15:44:21.940Z,67.04
2022-11-08T15:46:49.260Z,67.03
2022-11-08T15:49:27.127Z,66.98
2022-11-08T15:51:56.313Z,67.45
2022-11-08T15:54:24.314Z,67.28
2022-11-08T15:56:54.934Z,67.09
2022-11-08T15:59:27.969Z,67.20
2022-11-08T16:02:02.624Z,67.28
2022-11-08T16:04:30.315Z,67.27
2022-11-08T16:06:58.083Z,67.30
2022-11-08T16:09:25.008Z,67.44
2022-11-08T16:11:52.124Z,67.38
2022-11-08T16:14:22.605Z,67.61
2022-11-08T16:16:49.663Z,67.72
2022-11-08T16:19:22.267Z,67.87
2022-11-08T16:21:49.684Z,68.13
2022-11-08T16:24:16.333Z,68.00
2022-11-08T16:26:44.658Z,68.07
2022-11-08T16:29:20.140Z,68.05
2022-11-08T16:31:48.079Z,68.56
2022-11-08T16:34:14.800Z,68.60
2022-11-08T16:36:45.076Z,68.82
2022-11-08T16:39:26.445Z,68.88
2022-11-08T16:41:53.285Z,68.96
2022-11-08T16:44:20.495Z,69.02
2022-11-08T16:46:48.005Z,69.21
2022-11-08T16:49:20.974Z,69.24
2022-11-08T16:51:48.640Z,69.16
2022-11-08T16:54:19.749Z,69.25
2022-11-08T16:56:46.471Z,69.25
2022-11-08T16:59:13.292Z,69.28
2022-11-08T17:01:40.458Z,69.35
2022-11-08T17:04:07.077Z,69.65
2022-11-08T17:06:33.980Z,69.75
2022-11-08T17:09:00.687Z,69.86
2022-11-08T17:11:27.259Z,69.95
2022-11-08T17:13:54.958Z,70.12
2022-11-08T17:16:21.635Z,70.23
2022-11-08T17:18:52.537Z,70.43
2022-11-08T17:21:43.637Z,70.33
2022-11-08T17:24:07.229Z,70.36
2022-11-08T17:26:33.837Z,70.51
2022-11-08T17:29:00.457Z,70.48
2022-11-08T17:31:27.236Z,70.66
2022-11-08T17:33:56.071Z,70.96
2022-11-08T17:36:23.350Z,70.73
2022-11-08T17:38:49.990Z,70.81
2022-11-08T17:41:17.176Z,70.86
2022-11-08T17:43:44.281Z,70.62
2022-11-08T17:46:11.674Z,70.78
2022-11-08T17:48:40.087Z,70.88
2022-11-08T17:51:06.909Z,70.89
2022-11-08T17:53:34.274Z,70.94
2022-11-08T17:56:04.170Z,70.84
2022-11-08T17:58:33.814Z,70.88
2022-11-08T18:01:03.130Z,70.87
2022-11-08T18:03:30.220Z,71.24
2022-11-08T18:06:12.607Z,71.61
2022-11-08T18:08:40.579Z,71.97
2022-11-08T18:11:07.385Z,72.22
2022-11-08T18:13:35.268Z,72.34
2022-11-08T18:16:09.360Z,72.85
2022-11-08T18:18:36.582Z,72.84
2022-11-08T18:21:03.446Z,72.84
2022-11-08T18:23:30.465Z,73.04
2022-11-08T18:25:57.403Z,73.13
2022-11-08T18:28:24.646Z,73.19
2022-11-08T18:30:51.697Z,73.41
2022-11-08T18:33:19.964Z,73.39
2022-11-08T18:35:47.309Z,73.68
2022-11-08T18:38:15.019Z,73.77
2022-11-08T18:40:44.650Z,74.25
2022-11-08T18:43:11.307Z,74.11
2022-11-08T18:45:38.155Z,74.23
2022-11-08T18:48:04.913Z,74.40
2022-11-08T18:50:31.978Z,74.42
2022-11-08T18:53:03.247Z,74.68
2022-11-08T18:55:31.755Z,74.66
2022-11-08T18:58:01.299Z,74.85
2022-11-08T19:00:28.001Z,74.69
2022-11-08T19:02:54.955Z,74.71
2022-11-08T19:05:21.876Z,74.87
2022-11-08T19:07:48.474Z,74.82
2022-11-08T19:10:15.540Z,74.72
2022-11-08T19:12:42.434Z,74.66
2022-11-08T19:15:09.710Z,74.75
2022-11-08T19:17:36.543Z,74.76
2022-11-08T19:20:04.291Z,74.72
2022-11-08T19:22:31.133Z,74.63
2022-11-08T19:24:57.753Z,74.75
2022-11-08T19:27:24.610Z,74.63
2022-11-08T19:29:51.435Z,74.44
2022-11-08T19:32:18.046Z,74.26
2022-11-08T19:34:47.131Z,73.94
2022-11-08T19:37:13.848Z,74.05
2022-11-08T19:39:40.439Z,73.89
2022-11-08T19:42:07.371Z,73.87
2022-11-08T19:44:33.991Z,73.77
2022-11-08T19:47:00.817Z,73.58
2022-11-08T19:49:28.796Z,73.56
2022-11-08T19:51:55.564Z,73.41
2022-11-08T19:54:22.203Z,73.12
2022-11-08T19:57:06.030Z,73.08
2022-11-08T19:59:33.393Z,73.09
2022-11-08T20:02:00.430Z,73.27
2022-11-08T20:04:27.231Z,73.37
2022-11-08T20:06:54.014Z,73.36
2022-11-08T20:09:24.613Z,73.53
2022-11-08T20:11:55.181Z,73.59
2022-11-08T20:14:21.971Z,73.55
2022-11-08T20:16:53.192Z,73.22
2022-11-08T20:19:21.253Z,73.39
2022-11-08T20:21:48.405Z,73.36
2022-11-08T20:24:16.065Z,73.38
2022-11-08T20:26:43.312Z,73.47
2022-11-08T20:29:10.304Z,73.26
2022-11-08T20:31:37.021Z,73.30
2022-11-08T20:34:06.102Z,73.29
2022-11-08T20:36:35.444Z,73.62
2022-11-08T20:39:06.856Z,73.81
2022-11-08T20:41:35.653Z,73.88
2022-11-08T20:44:03.048Z,73.95
2022-11-08T20:46:29.717Z,73.79
2022-11-08T20:49:00.360Z,73.83
2022-11-08T20:51:27.849Z,73.75
2022-11-08T20:53:56.191Z,73.64
2022-11-08T20:56:24.086Z,73.55
2022-11-08T20:58:52.228Z,73.44
2022-11-08T21:01:21.475Z,73.46
2022-11-08T21:03:48.734Z,73.36
2022-11-08T21:06:22.894Z,73.47
2022-11-08T21:08:59.935Z,73.40
2022-11-08T21:11:30.820Z,73.04
2022-11-08T21:13:58.266Z,73.12
2022-11-08T21:16:46.984Z,73.41
2022-11-08T21:19:11.889Z,73.23
2022-11-08T21:21:38.629Z,73.08
2022-11-08T21:24:05.436Z,73.55
2022-11-08T21:26:36.440Z,73.33
2022-11-08T21:29:04.883Z,73.51
2022-11-08T21:31:31.890Z,73.64
2022-11-08T21:33:59.107Z,73.57
2022-11-08T21:36:29.235Z,73.48
2022-11-08T21:38:56.117Z,73.34
2022-11-08T21:41:23.283Z,73.49
2022-11-08T21:43:49.947Z,73.63
2022-11-08T21:46:19.380Z,73.52
2022-11-08T21:48:47.347Z,73.51
2022-11-08T21:51:14.611Z,73.75
2022-11-08T21:53:52.402Z,74.10
2022-11-08T21:56:22.438Z,74.03
2022-11-08T21:58:49.201Z,74.09
2022-11-08T22:01:16.791Z,74.27
2022-11-08T22:03:44.115Z,74.43
2022-11-08T22:06:10.789Z,74.63
2022-11-08T22:08:37.533Z,74.50
2022-11-08T22:11:04.768Z,74.76
2022-11-08T22:13:31.431Z,74.76
2022-11-08T22:15:58.133Z,74.66
2022-11-08T22:18:36.716Z,75.04
2022-11-08T22:21:29.887Z,74.96
2022-11-08T22:23:56.944Z,75.06
2022-11-08T22:26:23.636Z,75.05
2022-11-08T22:28:50.333Z,75.21
2022-11-08T22:31:17.598Z,75.36
2022-11-08T22:33:44.494Z,75.60
2022-11-08T22:36:11.959Z,75.52
2022-11-08T22:38:39.179Z,75.72
2022-11-08T22:41:06.403Z,75.65
2022-11-08T22:43:34.755Z,75.75
2022-11-08T22:46:02.117Z,75.86
2022-11-08T22:48:28.774Z,75.85
2022-11-08T22:50:55.589Z,75.94
2022-11-08T22:53:22.489Z,76.04
2022-11-08T22:55:49.106Z,76.15
2022-11-08T22:58:15.927Z,76.01
2022-11-08T23:00:45.734Z,76.11
2022-11-08T23:03:12.774Z,76.21
2022-11-08T23:05:39.399Z,76.31
2022-11-08T23:08:06.884Z,76.22
2022-11-08T23:10:53.467Z,76.36
2022-11-08T23:13:38.626Z,76.55
2022-11-08T23:16:24.277Z,76.48
2022-11-08T23:19:09.359Z,76.38
2022-11-08T23:21:54.518Z,76.38
2022-11-08T23:24:21.524Z,76.37
2022-11-08T23:27:06.992Z,76.40
2022-11-08T23:29:52.350Z,76.60
2022-11-08T23:32:18.953Z,76.70
2022-11-08T23:34:45.526Z,76.66
2022-11-08T23:37:12.138Z,76.85
2022-11-08T23:39:58.652Z,76.67
2022-11-08T23:42:44.366Z,76.81
2022-11-08T23:45:11.396Z,77.08
2022-11-08T23:47:38.197Z,76.84
2022-11-08T23:50:05.442Z,76.97
2022-11-08T23:52:33.017Z,77.03
2022-11-08T23:54:59.710Z,77.02
2022-11-08T23:57:26.269Z,77.02
2022-11-08T23:59:52.907Z,76.99
